sensor_id;sensor_type;location;lat;lon;timestamp;temperature;humidity
37806;DHT22;25082;50.870;0.022;2024-02-14T00:01:51;19.90;64.00
37806;DHT22;25082;50.870;0.022;2024-02-14T00:04:17;19.80;64.00
37806;DHT22;25082;50.870;0.022;2024-02-14T00:06:44;19.90;63.80
37806;DHT22;25082;50.870;0.022;2024-02-14T00:09:11;19.80;63.90
37806;DHT22;25082;50.870;0.022;2024-02-14T00:11:37;19.80;63.80
37806;DHT22;25082;50.870;0.022;2024-02-14T00:14:03;19.80;63.80
37806;DHT22;25082;50.870;0.022;2024-02-14T00:16:29;19.80;63.80
37806;DHT22;25082;50.870;0.022;2024-02-14T00:18:57;19.80;63.70
37806;DHT22;25082;50.870;0.022;2024-02-14T00:21:24;19.80;63.60
37806;DHT22;25082;50.870;0.022;2024-02-14T00:23:50;19.80;63.70
37806;DHT22;25082;50.870;0.022;2024-02-14T00:26:16;19.80;63.70
37806;DHT22;25082;50.870;0.022;2024-02-14T00:28:42;19.80;63.60
37806;DHT22;25082;50.870;0.022;2024-02-14T00:31:07;19.80;63.60
37806;DHT22;25082;50.870;0.022;2024-02-14T00:33:33;19.80;63.60
37806;DHT22;25082;50.870;0.022;2024-02-14T00:35:59;19.80;63.60
37806;DHT22;25082;50.870;0.022;2024-02-14T00:38:25;19.70;63.50
37806;DHT22;25082;50.870;0.022;2024-02-14T00:40:50;19.80;63.60
37806;DHT22;25082;50.870;0.022;2024-02-14T00:43:16;19.70;63.50
37806;DHT22;25082;50.870;0.022;2024-02-14T00:45:42;19.70;63.50
37806;DHT22;25082;50.870;0.022;2024-02-14T00:48:08;19.70;63.50
37806;DHT22;25082;50.870;0.022;2024-02-14T00:50:33;19.70;63.50
37806;DHT22;25082;50.870;0.022;2024-02-14T00:53:00;19.70;63.50
37806;DHT22;25082;50.870;0.022;2024-02-14T00:55:25;19.70;63.50
37806;DHT22;25082;50.870;0.022;2024-02-14T00:57:51;19.70;63.50
37806;DHT22;25082;50.870;0.022;2024-02-14T01:00:17;19.70;63.50
37806;DHT22;25082;50.870;0.022;2024-02-14T01:02:44;19.70;63.60
37806;DHT22;25082;50.870;0.022;2024-02-14T01:05:10;19.70;63.50
37806;DHT22;25082;50.870;0.022;2024-02-14T01:07:36;19.70;63.70
37806;DHT22;25082;50.870;0.022;2024-02-14T01:10:02;19.70;63.60
37806;DHT22;25082;50.870;0.022;2024-02-14T01:12:28;19.60;63.60
37806;DHT22;25082;50.870;0.022;2024-02-14T01:14:57;19.60;63.70
37806;DHT22;25082;50.870;0.022;2024-02-14T01:17:23;19.60;63.70
37806;DHT22;25082;50.870;0.022;2024-02-14T01:19:50;19.60;63.70
37806;DHT22;25082;50.870;0.022;2024-02-14T01:22:16;19.60;63.70
37806;DHT22;25082;50.870;0.022;2024-02-14T01:24:45;19.60;63.70
37806;DHT22;25082;50.870;0.022;2024-02-14T01:27:11;19.60;63.80
37806;DHT22;25082;50.870;0.022;2024-02-14T01:29:37;19.60;63.80
37806;DHT22;25082;50.870;0.022;2024-02-14T01:32:03;19.60;63.80
37806;DHT22;25082;50.870;0.022;2024-02-14T01:34:30;19.60;63.70
37806;DHT22;25082;50.870;0.022;2024-02-14T01:36:55;19.60;63.80
37806;DHT22;25082;50.870;0.022;2024-02-14T01:39:21;19.60;63.70
37806;DHT22;25082;50.870;0.022;2024-02-14T01:41:48;19.50;63.70
37806;DHT22;25082;50.870;0.022;2024-02-14T01:44:17;19.60;63.80
37806;DHT22;25082;50.870;0.022;2024-02-14T01:46:44;19.50;63.70
37806;DHT22;25082;50.870;0.022;2024-02-14T01:49:11;19.50;63.60
37806;DHT22;25082;50.870;0.022;2024-02-14T01:51:42;19.50;63.80
37806;DHT22;25082;50.870;0.022;2024-02-14T01:54:11;19.50;63.60
37806;DHT22;25082;50.870;0.022;2024-02-14T01:56:38;19.50;63.70
37806;DHT22;25082;50.870;0.022;2024-02-14T01:59:04;19.50;63.60
37806;DHT22;25082;50.870;0.022;2024-02-14T02:01:31;19.50;63.90
37806;DHT22;25082;50.870;0.022;2024-02-14T02:03:58;19.50;63.60
37806;DHT22;25082;50.870;0.022;2024-02-14T02:06:24;19.50;63.60
37806;DHT22;25082;50.870;0.022;2024-02-14T02:08:52;19.50;63.60
37806;DHT22;25082;50.870;0.022;2024-02-14T02:11:18;19.50;63.70
37806;DHT22;25082;50.870;0.022;2024-02-14T02:13:44;19.50;63.60
37806;DHT22;25082;50.870;0.022;2024-02-14T02:16:10;19.50;63.60
37806;DHT22;25082;50.870;0.022;2024-02-14T02:18:35;19.50;63.60
37806;DHT22;25082;50.870;0.022;2024-02-14T02:21:02;19.50;63.60
37806;DHT22;25082;50.870;0.022;2024-02-14T02:23:33;19.50;63.60
37806;DHT22;25082;50.870;0.022;2024-02-14T02:25:59;19.50;63.60
37806;DHT22;25082;50.870;0.022;2024-02-14T02:28:25;19.50;63.60
37806;DHT22;25082;50.870;0.022;2024-02-14T02:30:50;19.40;63.60
37806;DHT22;25082;50.870;0.022;2024-02-14T02:33:19;19.50;63.60
37806;DHT22;25082;50.870;0.022;2024-02-14T02:35:45;19.40;63.50
37806;DHT22;25082;50.870;0.022;2024-02-14T02:38:11;19.40;63.60
37806;DHT22;25082;50.870;0.022;2024-02-14T02:40:37;19.40;63.60
37806;DHT22;25082;50.870;0.022;2024-02-14T02:43:03;19.40;63.60
37806;DHT22;25082;50.870;0.022;2024-02-14T02:45:29;19.40;63.60
37806;DHT22;25082;50.870;0.022;2024-02-14T02:47:55;19.40;64.10
37806;DHT22;25082;50.870;0.022;2024-02-14T02:50:21;19.40;63.60
37806;DHT22;25082;50.870;0.022;2024-02-14T02:52:47;19.40;63.60
37806;DHT22;25082;50.870;0.022;2024-02-14T02:55:14;19.40;63.60
37806;DHT22;25082;50.870;0.022;2024-02-14T02:57:43;19.40;63.60
37806;DHT22;25082;50.870;0.022;2024-02-14T03:00:09;19.30;63.50
37806;DHT22;25082;50.870;0.022;2024-02-14T03:02:38;19.30;63.60
37806;DHT22;25082;50.870;0.022;2024-02-14T03:05:07;19.30;63.60
37806;DHT22;25082;50.870;0.022;2024-02-14T03:07:36;19.30;63.60
37806;DHT22;25082;50.870;0.022;2024-02-14T03:10:02;19.30;63.60
37806;DHT22;25082;50.870;0.022;2024-02-14T03:12:29;19.30;63.60
37806;DHT22;25082;50.870;0.022;2024-02-14T03:14:57;19.30;63.60
37806;DHT22;25082;50.870;0.022;2024-02-14T03:17:23;19.30;63.60
37806;DHT22;25082;50.870;0.022;2024-02-14T03:19:49;19.30;63.60
37806;DHT22;25082;50.870;0.022;2024-02-14T03:22:17;19.30;63.60
37806;DHT22;25082;50.870;0.022;2024-02-14T03:24:44;19.30;63.60
37806;DHT22;25082;50.870;0.022;2024-02-14T03:27:12;19.30;63.60
37806;DHT22;25082;50.870;0.022;2024-02-14T03:29:38;19.30;63.60
37806;DHT22;25082;50.870;0.022;2024-02-14T03:32:05;19.30;63.60
37806;DHT22;25082;50.870;0.022;2024-02-14T03:34:34;19.30;63.60
37806;DHT22;25082;50.870;0.022;2024-02-14T03:37:01;19.30;63.60
37806;DHT22;25082;50.870;0.022;2024-02-14T03:39:32;19.20;63.50
37806;DHT22;25082;50.870;0.022;2024-02-14T03:41:58;19.20;63.60
37806;DHT22;25082;50.870;0.022;2024-02-14T03:44:26;19.20;63.60
37806;DHT22;25082;50.870;0.022;2024-02-14T03:46:53;19.30;63.60
37806;DHT22;25082;50.870;0.022;2024-02-14T03:49:19;19.20;63.60
37806;DHT22;25082;50.870;0.022;2024-02-14T03:51:45;19.20;63.60
37806;DHT22;25082;50.870;0.022;2024-02-14T03:54:11;19.20;63.60
37806;DHT22;25082;50.870;0.022;2024-02-14T03:56:37;19.20;63.60
37806;DHT22;25082;50.870;0.022;2024-02-14T03:59:03;19.20;63.60
37806;DHT22;25082;50.870;0.022;2024-02-14T04:01:31;19.20;63.80
37806;DHT22;25082;50.870;0.022;2024-02-14T04:03:57;19.30;63.70
37806;DHT22;25082;50.870;0.022;2024-02-14T04:06:23;19.20;63.70
37806;DHT22;25082;50.870;0.022;2024-02-14T04:08:51;19.20;63.70
37806;DHT22;25082;50.870;0.022;2024-02-14T04:11:17;19.20;63.70
37806;DHT22;25082;50.870;0.022;2024-02-14T04:13:43;19.20;63.70
37806;DHT22;25082;50.870;0.022;2024-02-14T04:16:09;19.20;63.70
37806;DHT22;25082;50.870;0.022;2024-02-14T04:18:34;19.20;63.70
37806;DHT22;25082;50.870;0.022;2024-02-14T04:21:00;19.20;63.70
37806;DHT22;25082;50.870;0.022;2024-02-14T04:23:26;19.20;63.90
37806;DHT22;25082;50.870;0.022;2024-02-14T04:25:52;19.20;63.70
37806;DHT22;25082;50.870;0.022;2024-02-14T04:28:17;19.20;63.80
37806;DHT22;25082;50.870;0.022;2024-02-14T04:30:43;19.20;63.80
37806;DHT22;25082;50.870;0.022;2024-02-14T04:33:09;19.20;63.80
37806;DHT22;25082;50.870;0.022;2024-02-14T04:35:35;19.20;63.80
37806;DHT22;25082;50.870;0.022;2024-02-14T04:38:00;19.10;63.70
37806;DHT22;25082;50.870;0.022;2024-02-14T04:40:26;19.20;63.80
37806;DHT22;25082;50.870;0.022;2024-02-14T04:42:52;19.20;63.80
37806;DHT22;25082;50.870;0.022;2024-02-14T04:45:18;19.20;63.80
37806;DHT22;25082;50.870;0.022;2024-02-14T04:47:44;19.10;63.80
37806;DHT22;25082;50.870;0.022;2024-02-14T04:50:10;19.20;63.80
37806;DHT22;25082;50.870;0.022;2024-02-14T04:52:36;19.10;63.80
37806;DHT22;25082;50.870;0.022;2024-02-14T04:55:02;19.10;63.80
37806;DHT22;25082;50.870;0.022;2024-02-14T04:57:29;19.10;63.70
37806;DHT22;25082;50.870;0.022;2024-02-14T04:59:55;19.10;63.70
37806;DHT22;25082;50.870;0.022;2024-02-14T05:02:20;19.10;63.80
37806;DHT22;25082;50.870;0.022;2024-02-14T05:04:47;19.10;63.80
37806;DHT22;25082;50.870;0.022;2024-02-14T05:07:13;19.10;63.80
37806;DHT22;25082;50.870;0.022;2024-02-14T05:09:38;19.10;63.80
37806;DHT22;25082;50.870;0.022;2024-02-14T05:12:04;19.10;63.80
37806;DHT22;25082;50.870;0.022;2024-02-14T05:14:32;19.10;63.80
37806;DHT22;25082;50.870;0.022;2024-02-14T05:16:58;19.10;63.80
37806;DHT22;25082;50.870;0.022;2024-02-14T05:19:26;19.10;63.80
37806;DHT22;25082;50.870;0.022;2024-02-14T05:21:52;19.00;63.80
37806;DHT22;25082;50.870;0.022;2024-02-14T05:24:18;19.10;63.80
37806;DHT22;25082;50.870;0.022;2024-02-14T05:26:44;19.10;63.90
37806;DHT22;25082;50.870;0.022;2024-02-14T05:29:10;19.10;63.90
37806;DHT22;25082;50.870;0.022;2024-02-14T05:31:46;19.10;64.00
37806;DHT22;25082;50.870;0.022;2024-02-14T05:34:12;19.10;64.10
37806;DHT22;25082;50.870;0.022;2024-02-14T05:36:38;19.10;64.20
37806;DHT22;25082;50.870;0.022;2024-02-14T05:39:04;19.00;64.20
37806;DHT22;25082;50.870;0.022;2024-02-14T05:41:31;19.00;64.20
37806;DHT22;25082;50.870;0.022;2024-02-14T05:43:58;19.00;64.20
37806;DHT22;25082;50.870;0.022;2024-02-14T05:46:25;19.00;64.20
37806;DHT22;25082;50.870;0.022;2024-02-14T05:48:51;19.00;64.20
37806;DHT22;25082;50.870;0.022;2024-02-14T05:51:18;19.00;64.10
37806;DHT22;25082;50.870;0.022;2024-02-14T05:53:44;19.00;64.10
37806;DHT22;25082;50.870;0.022;2024-02-14T05:56:10;19.00;64.10
37806;DHT22;25082;50.870;0.022;2024-02-14T05:58:36;19.00;64.20
37806;DHT22;25082;50.870;0.022;2024-02-14T06:01:01;19.00;64.20
37806;DHT22;25082;50.870;0.022;2024-02-14T06:03:27;19.00;64.20
37806;DHT22;25082;50.870;0.022;2024-02-14T06:05:54;19.00;64.20
37806;DHT22;25082;50.870;0.022;2024-02-14T06:08:20;19.00;64.20
37806;DHT22;25082;50.870;0.022;2024-02-14T06:10:46;19.00;64.20
37806;DHT22;25082;50.870;0.022;2024-02-14T06:13:11;19.00;64.10
37806;DHT22;25082;50.870;0.022;2024-02-14T06:15:37;19.00;64.10
37806;DHT22;25082;50.870;0.022;2024-02-14T06:18:03;19.00;64.20
37806;DHT22;25082;50.870;0.022;2024-02-14T06:20:29;19.00;64.20
37806;DHT22;25082;50.870;0.022;2024-02-14T06:22:54;19.00;64.20
37806;DHT22;25082;50.870;0.022;2024-02-14T06:25:20;19.00;64.40
37806;DHT22;25082;50.870;0.022;2024-02-14T06:27:46;19.00;64.20
37806;DHT22;25082;50.870;0.022;2024-02-14T06:30:12;19.00;64.20
37806;DHT22;25082;50.870;0.022;2024-02-14T06:32:38;19.00;64.20
37806;DHT22;25082;50.870;0.022;2024-02-14T06:35:04;19.00;64.30
37806;DHT22;25082;50.870;0.022;2024-02-14T06:37:30;19.00;64.20
37806;DHT22;25082;50.870;0.022;2024-02-14T06:39:56;18.90;64.20
37806;DHT22;25082;50.870;0.022;2024-02-14T06:42:22;19.00;64.30
37806;DHT22;25082;50.870;0.022;2024-02-14T06:44:48;18.90;64.20
37806;DHT22;25082;50.870;0.022;2024-02-14T06:47:15;19.00;64.30
37806;DHT22;25082;50.870;0.022;2024-02-14T06:49:41;18.90;64.20
37806;DHT22;25082;50.870;0.022;2024-02-14T06:52:07;18.90;64.20
37806;DHT22;25082;50.870;0.022;2024-02-14T06:54:32;18.90;64.30
37806;DHT22;25082;50.870;0.022;2024-02-14T06:56:58;18.90;64.30
37806;DHT22;25082;50.870;0.022;2024-02-14T06:59:25;18.90;64.30
37806;DHT22;25082;50.870;0.022;2024-02-14T07:01:51;18.90;64.30
37806;DHT22;25082;50.870;0.022;2024-02-14T07:04:22;18.90;64.30
37806;DHT22;25082;50.870;0.022;2024-02-14T07:06:54;18.90;64.30
37806;DHT22;25082;50.870;0.022;2024-02-14T07:09:20;18.90;64.40
37806;DHT22;25082;50.870;0.022;2024-02-14T07:11:45;18.90;64.40
37806;DHT22;25082;50.870;0.022;2024-02-14T07:14:11;18.90;64.40
37806;DHT22;25082;50.870;0.022;2024-02-14T07:16:37;19.00;64.40
37806;DHT22;25082;50.870;0.022;2024-02-14T07:19:03;19.00;64.40
37806;DHT22;25082;50.870;0.022;2024-02-14T07:21:29;19.00;64.30
37806;DHT22;25082;50.870;0.022;2024-02-14T07:23:55;19.00;64.40
37806;DHT22;25082;50.870;0.022;2024-02-14T07:26:21;19.00;64.40
37806;DHT22;25082;50.870;0.022;2024-02-14T07:28:46;19.10;64.40
37806;DHT22;25082;50.870;0.022;2024-02-14T07:31:12;19.10;64.40
37806;DHT22;25082;50.870;0.022;2024-02-14T07:33:38;19.10;64.40
37806;DHT22;25082;50.870;0.022;2024-02-14T07:36:04;19.10;64.40
37806;DHT22;25082;50.870;0.022;2024-02-14T07:38:30;19.10;64.40
37806;DHT22;25082;50.870;0.022;2024-02-14T07:40:56;19.10;64.40
37806;DHT22;25082;50.870;0.022;2024-02-14T07:43:22;19.20;64.40
37806;DHT22;25082;50.870;0.022;2024-02-14T07:45:48;19.10;64.30
37806;DHT22;25082;50.870;0.022;2024-02-14T07:48:14;19.10;64.30
37806;DHT22;25082;50.870;0.022;2024-02-14T07:50:40;19.20;64.40
37806;DHT22;25082;50.870;0.022;2024-02-14T07:53:05;19.20;64.40
37806;DHT22;25082;50.870;0.022;2024-02-14T07:55:31;19.20;64.40
37806;DHT22;25082;50.870;0.022;2024-02-14T07:57:58;19.20;64.40
37806;DHT22;25082;50.870;0.022;2024-02-14T08:00:25;19.20;64.40
37806;DHT22;25082;50.870;0.022;2024-02-14T08:02:51;19.20;64.40
37806;DHT22;25082;50.870;0.022;2024-02-14T08:05:17;19.20;64.40
37806;DHT22;25082;50.870;0.022;2024-02-14T08:07:44;19.20;64.40
37806;DHT22;25082;50.870;0.022;2024-02-14T08:10:11;19.20;64.50
37806;DHT22;25082;50.870;0.022;2024-02-14T08:12:37;19.20;64.50
37806;DHT22;25082;50.870;0.022;2024-02-14T08:15:03;19.20;64.40
37806;DHT22;25082;50.870;0.022;2024-02-14T08:17:31;19.20;64.50
37806;DHT22;25082;50.870;0.022;2024-02-14T08:19:57;19.30;64.60
37806;DHT22;25082;50.870;0.022;2024-02-14T08:22:23;19.30;64.60
37806;DHT22;25082;50.870;0.022;2024-02-14T08:24:49;19.30;64.60
37806;DHT22;25082;50.870;0.022;2024-02-14T08:27:14;19.30;64.60
37806;DHT22;25082;50.870;0.022;2024-02-14T08:29:40;19.30;64.60
37806;DHT22;25082;50.870;0.022;2024-02-14T08:32:06;19.30;64.60
37806;DHT22;25082;50.870;0.022;2024-02-14T08:34:32;19.30;64.60
37806;DHT22;25082;50.870;0.022;2024-02-14T08:36:57;19.30;64.60
37806;DHT22;25082;50.870;0.022;2024-02-14T08:39:23;19.30;64.60
37806;DHT22;25082;50.870;0.022;2024-02-14T08:41:49;19.30;64.60
37806;DHT22;25082;50.870;0.022;2024-02-14T08:44:15;19.30;64.60
37806;DHT22;25082;50.870;0.022;2024-02-14T08:46:41;19.40;64.70
37806;DHT22;25082;50.870;0.022;2024-02-14T08:49:08;19.40;64.70
37806;DHT22;25082;50.870;0.022;2024-02-14T08:51:37;19.40;64.70
37806;DHT22;25082;50.870;0.022;2024-02-14T08:54:06;19.40;64.70
37806;DHT22;25082;50.870;0.022;2024-02-14T08:56:32;19.40;64.70
37806;DHT22;25082;50.870;0.022;2024-02-14T08:59:03;19.40;64.70
37806;DHT22;25082;50.870;0.022;2024-02-14T09:01:30;19.40;64.70
37806;DHT22;25082;50.870;0.022;2024-02-14T09:03:56;19.40;64.70
37806;DHT22;25082;50.870;0.022;2024-02-14T09:06:22;19.40;64.70
37806;DHT22;25082;50.870;0.022;2024-02-14T09:08:49;19.40;64.70
37806;DHT22;25082;50.870;0.022;2024-02-14T09:11:18;19.40;64.70
37806;DHT22;25082;50.870;0.022;2024-02-14T09:13:44;19.40;64.70
37806;DHT22;25082;50.870;0.022;2024-02-14T09:16:13;19.50;64.70
37806;DHT22;25082;50.870;0.022;2024-02-14T09:18:42;19.40;64.70
37806;DHT22;25082;50.870;0.022;2024-02-14T09:21:08;19.50;64.80
37806;DHT22;25082;50.870;0.022;2024-02-14T09:23:34;19.50;64.80
37806;DHT22;25082;50.870;0.022;2024-02-14T09:26:00;19.50;64.80
37806;DHT22;25082;50.870;0.022;2024-02-14T09:28:26;19.50;64.80
37806;DHT22;25082;50.870;0.022;2024-02-14T09:30:52;19.50;64.80
37806;DHT22;25082;50.870;0.022;2024-02-14T09:33:18;19.50;64.80
37806;DHT22;25082;50.870;0.022;2024-02-14T09:35:44;19.50;64.80
37806;DHT22;25082;50.870;0.022;2024-02-14T09:38:12;19.50;64.80
37806;DHT22;25082;50.870;0.022;2024-02-14T09:40:41;19.50;64.80
37806;DHT22;25082;50.870;0.022;2024-02-14T09:45:51;19.50;64.80
37806;DHT22;25082;50.870;0.022;2024-02-14T09:48:19;19.50;64.70
37806;DHT22;25082;50.870;0.022;2024-02-14T09:50:45;19.50;64.80
37806;DHT22;25082;50.870;0.022;2024-02-14T09:53:13;19.50;64.80
37806;DHT22;25082;50.870;0.022;2024-02-14T09:55:41;19.50;64.80
37806;DHT22;25082;50.870;0.022;2024-02-14T09:58:07;19.50;64.80
37806;DHT22;25082;50.870;0.022;2024-02-14T10:00:34;19.50;64.70
37806;DHT22;25082;50.870;0.022;2024-02-14T10:03:01;19.50;64.80
37806;DHT22;25082;50.870;0.022;2024-02-14T10:05:26;19.60;64.80
37806;DHT22;25082;50.870;0.022;2024-02-14T10:07:56;19.50;64.80
37806;DHT22;25082;50.870;0.022;2024-02-14T10:10:23;19.60;64.90
37806;DHT22;25082;50.870;0.022;2024-02-14T10:12:49;19.60;64.90
37806;DHT22;25082;50.870;0.022;2024-02-14T10:15:15;19.60;64.90
37806;DHT22;25082;50.870;0.022;2024-02-14T10:17:41;19.60;65.00
37806;DHT22;25082;50.870;0.022;2024-02-14T10:20:07;19.60;64.90
37806;DHT22;25082;50.870;0.022;2024-02-14T10:22:37;19.60;65.00
37806;DHT22;25082;50.870;0.022;2024-02-14T10:25:04;19.60;64.90
37806;DHT22;25082;50.870;0.022;2024-02-14T10:27:38;19.60;64.90
37806;DHT22;25082;50.870;0.022;2024-02-14T10:30:07;19.60;64.90
37806;DHT22;25082;50.870;0.022;2024-02-14T10:32:39;19.60;64.90
37806;DHT22;25082;50.870;0.022;2024-02-14T10:35:14;19.60;64.90
37806;DHT22;25082;50.870;0.022;2024-02-14T10:37:40;19.60;64.90
37806;DHT22;25082;50.870;0.022;2024-02-14T10:40:07;19.60;64.90
37806;DHT22;25082;50.870;0.022;2024-02-14T10:42:34;19.60;64.90
37806;DHT22;25082;50.870;0.022;2024-02-14T10:45:01;19.70;64.90
37806;DHT22;25082;50.870;0.022;2024-02-14T10:47:32;19.60;64.90
37806;DHT22;25082;50.870;0.022;2024-02-14T10:50:02;19.70;65.50
37806;DHT22;25082;50.870;0.022;2024-02-14T10:52:35;19.70;64.90
37806;DHT22;25082;50.870;0.022;2024-02-14T10:55:04;19.70;64.90
37806;DHT22;25082;50.870;0.022;2024-02-14T10:57:30;19.70;64.90
37806;DHT22;25082;50.870;0.022;2024-02-14T11:00:03;19.70;65.30
37806;DHT22;25082;50.870;0.022;2024-02-14T11:02:30;19.70;66.10
37806;DHT22;25082;50.870;0.022;2024-02-14T11:04:58;19.70;66.70
37806;DHT22;25082;50.870;0.022;2024-02-14T11:07:28;19.70;66.10
37806;DHT22;25082;50.870;0.022;2024-02-14T11:12:40;19.70;66.50
37806;DHT22;25082;50.870;0.022;2024-02-14T11:15:22;19.70;66.60
37806;DHT22;25082;50.870;0.022;2024-02-14T11:17:50;19.70;66.60
37806;DHT22;25082;50.870;0.022;2024-02-14T11:20:18;19.70;66.70
37806;DHT22;25082;50.870;0.022;2024-02-14T11:25:32;19.70;66.80
37806;DHT22;25082;50.870;0.022;2024-02-14T11:27:58;19.70;66.80
37806;DHT22;25082;50.870;0.022;2024-02-14T11:30:31;19.70;66.90
37806;DHT22;25082;50.870;0.022;2024-02-14T11:33:21;19.70;66.80
37806;DHT22;25082;50.870;0.022;2024-02-14T11:35:49;19.70;66.80
37806;DHT22;25082;50.870;0.022;2024-02-14T11:38:17;19.70;66.80
37806;DHT22;25082;50.870;0.022;2024-02-14T11:40:43;19.70;66.80
37806;DHT22;25082;50.870;0.022;2024-02-14T11:43:17;19.70;66.80
37806;DHT22;25082;50.870;0.022;2024-02-14T11:45:44;19.70;66.80
37806;DHT22;25082;50.870;0.022;2024-02-14T11:48:13;19.70;66.90
37806;DHT22;25082;50.870;0.022;2024-02-14T11:50:40;19.70;66.90
37806;DHT22;25082;50.870;0.022;2024-02-14T11:53:07;19.70;66.90
37806;DHT22;25082;50.870;0.022;2024-02-14T11:55:36;19.70;67.00
37806;DHT22;25082;50.870;0.022;2024-02-14T11:58:07;19.70;67.20
37806;DHT22;25082;50.870;0.022;2024-02-14T12:00:33;19.70;67.20
37806;DHT22;25082;50.870;0.022;2024-02-14T12:03:01;19.70;67.20
37806;DHT22;25082;50.870;0.022;2024-02-14T12:05:27;19.70;67.20
37806;DHT22;25082;50.870;0.022;2024-02-14T12:07:53;19.70;67.20
37806;DHT22;25082;50.870;0.022;2024-02-14T12:10:20;19.70;67.20
37806;DHT22;25082;50.870;0.022;2024-02-14T12:12:47;19.80;67.30
37806;DHT22;25082;50.870;0.022;2024-02-14T12:15:13;19.70;67.20
37806;DHT22;25082;50.870;0.022;2024-02-14T12:17:41;19.70;67.10
37806;DHT22;25082;50.870;0.022;2024-02-14T12:20:11;19.80;67.20
37806;DHT22;25082;50.870;0.022;2024-02-14T12:22:38;19.80;67.10
37806;DHT22;25082;50.870;0.022;2024-02-14T12:25:08;19.80;67.10
37806;DHT22;25082;50.870;0.022;2024-02-14T12:27:37;19.80;67.10
37806;DHT22;25082;50.870;0.022;2024-02-14T12:30:05;19.80;67.00
37806;DHT22;25082;50.870;0.022;2024-02-14T12:32:32;19.80;67.00
37806;DHT22;25082;50.870;0.022;2024-02-14T12:34:59;19.80;67.00
37806;DHT22;25082;50.870;0.022;2024-02-14T12:37:25;19.80;67.00
37806;DHT22;25082;50.870;0.022;2024-02-14T12:39:51;19.80;67.00
37806;DHT22;25082;50.870;0.022;2024-02-14T12:42:18;19.80;67.10
37806;DHT22;25082;50.870;0.022;2024-02-14T12:44:50;19.80;67.10
37806;DHT22;25082;50.870;0.022;2024-02-14T12:47:16;19.80;67.00
37806;DHT22;25082;50.870;0.022;2024-02-14T12:49:43;19.80;67.10
37806;DHT22;25082;50.870;0.022;2024-02-14T12:52:10;19.80;67.10
37806;DHT22;25082;50.870;0.022;2024-02-14T12:54:37;19.80;67.00
37806;DHT22;25082;50.870;0.022;2024-02-14T12:57:02;19.80;67.00
37806;DHT22;25082;50.870;0.022;2024-02-14T12:59:28;19.80;67.00
37806;DHT22;25082;50.870;0.022;2024-02-14T13:01:54;19.80;67.10
37806;DHT22;25082;50.870;0.022;2024-02-14T13:04:20;19.80;67.10
37806;DHT22;25082;50.870;0.022;2024-02-14T13:06:46;19.80;67.00
37806;DHT22;25082;50.870;0.022;2024-02-14T13:09:13;19.80;67.00
37806;DHT22;25082;50.870;0.022;2024-02-14T13:11:40;19.80;67.10
37806;DHT22;25082;50.870;0.022;2024-02-14T13:14:08;19.80;67.10
37806;DHT22;25082;50.870;0.022;2024-02-14T13:16:34;19.80;67.50
37806;DHT22;25082;50.870;0.022;2024-02-14T13:19:00;19.80;67.50
37806;DHT22;25082;50.870;0.022;2024-02-14T13:21:26;19.80;67.60
37806;DHT22;25082;50.870;0.022;2024-02-14T13:23:52;19.80;67.60
37806;DHT22;25082;50.870;0.022;2024-02-14T13:26:17;19.80;67.70
37806;DHT22;25082;50.870;0.022;2024-02-14T13:28:43;19.80;68.00
37806;DHT22;25082;50.870;0.022;2024-02-14T13:31:09;19.80;68.60
37806;DHT22;25082;50.870;0.022;2024-02-14T13:33:36;19.80;69.80
37806;DHT22;25082;50.870;0.022;2024-02-14T13:36:02;19.80;71.00
37806;DHT22;25082;50.870;0.022;2024-02-14T13:38:29;19.80;70.50
37806;DHT22;25082;50.870;0.022;2024-02-14T13:40:55;19.90;71.10
37806;DHT22;25082;50.870;0.022;2024-02-14T13:43:21;19.90;71.60
37806;DHT22;25082;50.870;0.022;2024-02-14T13:45:47;19.90;71.60
37806;DHT22;25082;50.870;0.022;2024-02-14T13:48:14;19.90;71.30
37806;DHT22;25082;50.870;0.022;2024-02-14T13:50:40;19.90;70.90
37806;DHT22;25082;50.870;0.022;2024-02-14T13:53:08;20.00;70.50
37806;DHT22;25082;50.870;0.022;2024-02-14T13:55:33;20.00;70.10
37806;DHT22;25082;50.870;0.022;2024-02-14T13:58:00;20.00;69.70
37806;DHT22;25082;50.870;0.022;2024-02-14T14:00:25;20.00;69.60
37806;DHT22;25082;50.870;0.022;2024-02-14T14:02:51;20.00;69.70
37806;DHT22;25082;50.870;0.022;2024-02-14T14:05:17;20.00;69.50
37806;DHT22;25082;50.870;0.022;2024-02-14T14:07:46;20.00;69.30
37806;DHT22;25082;50.870;0.022;2024-02-14T14:10:12;20.00;69.90
37806;DHT22;25082;50.870;0.022;2024-02-14T14:12:38;20.00;70.80
37806;DHT22;25082;50.870;0.022;2024-02-14T14:15:05;20.00;70.70
37806;DHT22;25082;50.870;0.022;2024-02-14T14:17:31;20.10;71.00
37806;DHT22;25082;50.870;0.022;2024-02-14T14:19:57;20.00;70.70
37806;DHT22;25082;50.870;0.022;2024-02-14T14:22:22;20.00;71.80
37806;DHT22;25082;50.870;0.022;2024-02-14T14:24:48;20.10;72.10
37806;DHT22;25082;50.870;0.022;2024-02-14T14:27:14;20.00;71.90
37806;DHT22;25082;50.870;0.022;2024-02-14T14:29:41;20.10;72.00
37806;DHT22;25082;50.870;0.022;2024-02-14T14:32:07;20.00;72.10
37806;DHT22;25082;50.870;0.022;2024-02-14T14:34:33;20.00;72.40
37806;DHT22;25082;50.870;0.022;2024-02-14T14:36:59;20.00;72.30
37806;DHT22;25082;50.870;0.022;2024-02-14T14:39:26;20.10;72.50
37806;DHT22;25082;50.870;0.022;2024-02-14T14:41:52;20.10;72.50
37806;DHT22;25082;50.870;0.022;2024-02-14T14:44:21;20.10;72.40
37806;DHT22;25082;50.870;0.022;2024-02-14T14:46:47;20.00;69.70
37806;DHT22;25082;50.870;0.022;2024-02-14T14:49:13;19.90;68.70
37806;DHT22;25082;50.870;0.022;2024-02-14T14:51:38;19.80;68.70
37806;DHT22;25082;50.870;0.022;2024-02-14T14:54:04;19.70;68.10
37806;DHT22;25082;50.870;0.022;2024-02-14T14:56:30;19.60;68.30
37806;DHT22;25082;50.870;0.022;2024-02-14T14:58:56;19.50;68.20
37806;DHT22;25082;50.870;0.022;2024-02-14T15:01:25;19.50;68.10
37806;DHT22;25082;50.870;0.022;2024-02-14T15:03:51;19.40;68.20
37806;DHT22;25082;50.870;0.022;2024-02-14T15:06:18;19.40;68.30
37806;DHT22;25082;50.870;0.022;2024-02-14T15:08:44;19.30;68.10
37806;DHT22;25082;50.870;0.022;2024-02-14T15:11:11;19.30;68.00
37806;DHT22;25082;50.870;0.022;2024-02-14T15:13:40;19.30;68.20
37806;DHT22;25082;50.870;0.022;2024-02-14T15:16:06;19.20;67.70
37806;DHT22;25082;50.870;0.022;2024-02-14T15:18:34;19.20;67.70
37806;DHT22;25082;50.870;0.022;2024-02-14T15:21:00;19.10;67.70
37806;DHT22;25082;50.870;0.022;2024-02-14T15:23:27;19.10;67.60
37806;DHT22;25082;50.870;0.022;2024-02-14T15:25:53;19.10;67.20
37806;DHT22;25082;50.870;0.022;2024-02-14T15:28:28;19.10;67.20
37806;DHT22;25082;50.870;0.022;2024-02-14T15:30:56;19.10;67.30
37806;DHT22;25082;50.870;0.022;2024-02-14T15:33:40;19.00;67.50
37806;DHT22;25082;50.870;0.022;2024-02-14T15:36:06;19.10;67.70